sensor_id;sensor_type;location;lat;lon;timestamp;P1;durP1;ratioP1;P2;durP2;ratioP2
10465;SDS011;5280;42.600;23.556;2023-06-24T00:02:23;8.30;;;7.60;;
10465;SDS011;5280;42.600;23.556;2023-06-24T00:04:50;7.83;;;7.13;;
10465;SDS011;5280;42.600;23.556;2023-06-24T00:07:20;8.87;;;8.03;;
10465;SDS011;5280;42.600;23.556;2023-06-24T00:09:47;8.63;;;7.70;;
10465;SDS011;5280;42.600;23.556;2023-06-24T00:12:14;9.20;;;7.47;;
10465;SDS011;5280;42.600;23.556;2023-06-24T00:14:44;8.40;;;7.70;;
10465;SDS011;5280;42.600;23.556;2023-06-24T00:17:12;8.93;;;7.83;;
10465;SDS011;5280;42.600;23.556;2023-06-24T00:19:41;9.00;;;8.33;;
10465;SDS011;5280;42.600;23.556;2023-06-24T00:22:09;8.27;;;7.47;;
10465;SDS011;5280;42.600;23.556;2023-06-24T00:24:36;8.27;;;7.67;;
10465;SDS011;5280;42.600;23.556;2023-06-24T00:27:05;9.07;;;8.27;;
10465;SDS011;5280;42.600;23.556;2023-06-24T00:29:32;8.53;;;7.73;;
10465;SDS011;5280;42.600;23.556;2023-06-24T00:31:59;8.43;;;7.67;;
10465;SDS011;5280;42.600;23.556;2023-06-24T00:34:27;8.50;;;7.57;;
10465;SDS011;5280;42.600;23.556;2023-06-24T00:36:54;8.70;;;8.00;;
10465;SDS011;5280;42.600;23.556;2023-06-24T00:39:21;8.97;;;8.17;;
10465;SDS011;5280;42.600;23.556;2023-06-24T00:41:49;8.40;;;7.60;;
10465;SDS011;5280;42.600;23.556;2023-06-24T00:44:15;8.50;;;7.80;;
10465;SDS011;5280;42.600;23.556;2023-06-24T00:46:42;7.70;;;7.10;;
10465;SDS011;5280;42.600;23.556;2023-06-24T00:49:09;7.73;;;7.03;;
10465;SDS011;5280;42.600;23.556;2023-06-24T00:51:42;7.23;;;6.53;;
10465;SDS011;5280;42.600;23.556;2023-06-24T00:54:12;7.93;;;7.30;;
10465;SDS011;5280;42.600;23.556;2023-06-24T00:56:39;8.40;;;7.70;;
10465;SDS011;5280;42.600;23.556;2023-06-24T00:59:07;8.20;;;7.50;;
10465;SDS011;5280;42.600;23.556;2023-06-24T01:01:37;8.90;;;8.00;;
10465;SDS011;5280;42.600;23.556;2023-06-24T01:04:04;8.83;;;8.03;;
10465;SDS011;5280;42.600;23.556;2023-06-24T01:06:34;8.60;;;7.90;;
10465;SDS011;5280;42.600;23.556;2023-06-24T01:09:03;8.87;;;8.17;;
10465;SDS011;5280;42.600;23.556;2023-06-24T01:11:30;8.60;;;7.83;;
10465;SDS011;5280;42.600;23.556;2023-06-24T01:13:57;8.40;;;7.70;;
10465;SDS011;5280;42.600;23.556;2023-06-24T01:16:25;9.73;;;8.03;;
10465;SDS011;5280;42.600;23.556;2023-06-24T01:18:59;8.40;;;7.70;;
10465;SDS011;5280;42.600;23.556;2023-06-24T01:21:40;8.37;;;7.67;;
10465;SDS011;5280;42.600;23.556;2023-06-24T01:24:28;8.83;;;8.03;;
10465;SDS011;5280;42.600;23.556;2023-06-24T01:27:13;8.77;;;8.03;;
10465;SDS011;5280;42.600;23.556;2023-06-24T01:32:56;8.13;;;7.43;;
10465;SDS011;5280;42.600;23.556;2023-06-24T01:35:30;8.90;;;8.20;;
10465;SDS011;5280;42.600;23.556;2023-06-24T01:38:00;9.10;;;8.23;;
10465;SDS011;5280;42.600;23.556;2023-06-24T01:40:34;8.70;;;7.90;;
10465;SDS011;5280;42.600;23.556;2023-06-24T01:43:06;8.93;;;8.03;;
10465;SDS011;5280;42.600;23.556;2023-06-24T01:45:36;8.47;;;7.77;;
10465;SDS011;5280;42.600;23.556;2023-06-24T01:48:11;8.70;;;7.90;;
10465;SDS011;5280;42.600;23.556;2023-06-24T01:50:44;8.57;;;7.87;;
10465;SDS011;5280;42.600;23.556;2023-06-24T01:53:17;9.07;;;7.90;;
10465;SDS011;5280;42.600;23.556;2023-06-24T01:55:46;8.93;;;8.03;;
10465;SDS011;5280;42.600;23.556;2023-06-24T01:58:14;8.50;;;7.70;;
10465;SDS011;5280;42.600;23.556;2023-06-24T02:00:43;9.00;;;8.17;;
10465;SDS011;5280;42.600;23.556;2023-06-24T02:03:12;8.50;;;7.80;;
10465;SDS011;5280;42.600;23.556;2023-06-24T02:05:40;8.63;;;7.90;;
10465;SDS011;5280;42.600;23.556;2023-06-24T02:08:09;9.33;;;7.83;;
10465;SDS011;5280;42.600;23.556;2023-06-24T02:10:39;7.97;;;7.37;;
10465;SDS011;5280;42.600;23.556;2023-06-24T02:13:07;8.30;;;7.60;;
10465;SDS011;5280;42.600;23.556;2023-06-24T02:15:38;8.77;;;8.07;;
10465;SDS011;5280;42.600;23.556;2023-06-24T02:18:07;8.73;;;8.00;;
10465;SDS011;5280;42.600;23.556;2023-06-24T02:20:37;8.67;;;7.97;;
10465;SDS011;5280;42.600;23.556;2023-06-24T02:23:07;8.40;;;7.70;;
10465;SDS011;5280;42.600;23.556;2023-06-24T02:25:35;7.67;;;6.97;;
10465;SDS011;5280;42.600;23.556;2023-06-24T02:28:04;8.30;;;7.53;;
10465;SDS011;5280;42.600;23.556;2023-06-24T02:30:32;8.70;;;8.00;;
10465;SDS011;5280;42.600;23.556;2023-06-24T02:33:00;8.90;;;8.10;;
10465;SDS011;5280;42.600;23.556;2023-06-24T02:35:27;8.37;;;7.57;;
10465;SDS011;5280;42.600;23.556;2023-06-24T02:37:55;9.37;;;8.53;;
10465;SDS011;5280;42.600;23.556;2023-06-24T02:40:22;8.43;;;7.80;;
10465;SDS011;5280;42.600;23.556;2023-06-24T02:42:49;8.60;;;7.93;;
10465;SDS011;5280;42.600;23.556;2023-06-24T02:45:16;9.03;;;8.33;;
10465;SDS011;5280;42.600;23.556;2023-06-24T02:47:43;8.70;;;7.77;;
10465;SDS011;5280;42.600;23.556;2023-06-24T02:50:13;8.93;;;8.10;;
10465;SDS011;5280;42.600;23.556;2023-06-24T02:52:41;9.23;;;8.40;;
10465;SDS011;5280;42.600;23.556;2023-06-24T02:55:10;9.63;;;7.90;;
10465;SDS011;5280;42.600;23.556;2023-06-24T02:57:37;8.50;;;7.70;;
10465;SDS011;5280;42.600;23.556;2023-06-24T03:00:09;8.67;;;7.97;;
10465;SDS011;5280;42.600;23.556;2023-06-24T03:02:38;8.37;;;7.67;;
10465;SDS011;5280;42.600;23.556;2023-06-24T03:05:05;9.47;;;8.67;;
10465;SDS011;5280;42.600;23.556;2023-06-24T03:07:33;9.37;;;8.37;;
10465;SDS011;5280;42.600;23.556;2023-06-24T03:10:01;8.50;;;7.83;;
10465;SDS011;5280;42.600;23.556;2023-06-24T03:12:31;8.93;;;8.23;;
10465;SDS011;5280;42.600;23.556;2023-06-24T03:14:58;9.10;;;8.30;;
10465;SDS011;5280;42.600;23.556;2023-06-24T03:17:26;9.47;;;8.53;;
10465;SDS011;5280;42.600;23.556;2023-06-24T03:19:53;8.80;;;8.00;;
10465;SDS011;5280;42.600;23.556;2023-06-24T03:22:20;9.40;;;8.60;;
10465;SDS011;5280;42.600;23.556;2023-06-24T03:24:47;9.40;;;8.50;;
10465;SDS011;5280;42.600;23.556;2023-06-24T03:27:14;8.63;;;7.83;;
10465;SDS011;5280;42.600;23.556;2023-06-24T03:29:43;8.73;;;8.03;;
10465;SDS011;5280;42.600;23.556;2023-06-24T03:32:09;8.63;;;8.03;;
10465;SDS011;5280;42.600;23.556;2023-06-24T03:34:36;9.37;;;8.40;;
10465;SDS011;5280;42.600;23.556;2023-06-24T03:37:03;9.07;;;8.37;;
10465;SDS011;5280;42.600;23.556;2023-06-24T03:39:30;9.63;;;8.80;;
10465;SDS011;5280;42.600;23.556;2023-06-24T03:41:57;9.60;;;8.63;;
10465;SDS011;5280;42.600;23.556;2023-06-24T03:44:24;8.87;;;8.10;;
10465;SDS011;5280;42.600;23.556;2023-06-24T03:46:52;9.20;;;8.50;;
10465;SDS011;5280;42.600;23.556;2023-06-24T03:49:19;9.77;;;8.77;;
10465;SDS011;5280;42.600;23.556;2023-06-24T03:51:45;9.13;;;8.33;;
10465;SDS011;5280;42.600;23.556;2023-06-24T03:54:12;9.87;;;9.07;;
10465;SDS011;5280;42.600;23.556;2023-06-24T03:56:39;9.30;;;8.50;;
10465;SDS011;5280;42.600;23.556;2023-06-24T03:59:06;9.77;;;8.97;;
10465;SDS011;5280;42.600;23.556;2023-06-24T04:01:33;10.20;;;9.33;;
10465;SDS011;5280;42.600;23.556;2023-06-24T04:04:02;9.93;;;9.13;;
10465;SDS011;5280;42.600;23.556;2023-06-24T04:06:29;9.80;;;9.00;;
10465;SDS011;5280;42.600;23.556;2023-06-24T04:08:56;9.90;;;9.13;;
10465;SDS011;5280;42.600;23.556;2023-06-24T04:11:23;10.70;;;8.87;;
10465;SDS011;5280;42.600;23.556;2023-06-24T04:13:50;10.17;;;9.27;;
10465;SDS011;5280;42.600;23.556;2023-06-24T04:16:17;10.10;;;9.30;;
10465;SDS011;5280;42.600;23.556;2023-06-24T04:18:44;9.50;;;8.80;;
10465;SDS011;5280;42.600;23.556;2023-06-24T04:21:12;9.87;;;8.97;;
10465;SDS011;5280;42.600;23.556;2023-06-24T04:23:39;10.00;;;9.03;;
10465;SDS011;5280;42.600;23.556;2023-06-24T04:26:06;12.17;;;8.60;;
10465;SDS011;5280;42.600;23.556;2023-06-24T04:28:33;13.40;;;9.00;;
10465;SDS011;5280;42.600;23.556;2023-06-24T04:31:00;10.13;;;9.13;;
10465;SDS011;5280;42.600;23.556;2023-06-24T04:33:27;9.80;;;9.00;;
10465;SDS011;5280;42.600;23.556;2023-06-24T04:35:54;9.30;;;8.53;;
10465;SDS011;5280;42.600;23.556;2023-06-24T04:38:22;10.40;;;9.50;;
10465;SDS011;5280;42.600;23.556;2023-06-24T04:40:49;9.70;;;8.93;;
10465;SDS011;5280;42.600;23.556;2023-06-24T04:43:16;10.53;;;9.40;;
10465;SDS011;5280;42.600;23.556;2023-06-24T04:45:42;10.57;;;9.67;;
10465;SDS011;5280;42.600;23.556;2023-06-24T04:48:09;9.63;;;8.80;;
10465;SDS011;5280;42.600;23.556;2023-06-24T04:50:36;10.13;;;9.13;;
10465;SDS011;5280;42.600;23.556;2023-06-24T04:53:03;10.13;;;9.30;;
10465;SDS011;5280;42.600;23.556;2023-06-24T04:55:33;10.87;;;8.70;;
10465;SDS011;5280;42.600;23.556;2023-06-24T04:57:59;9.33;;;8.50;;
10465;SDS011;5280;42.600;23.556;2023-06-24T05:00:26;10.67;;;9.73;;
10465;SDS011;5280;42.600;23.556;2023-06-24T05:02:53;9.63;;;8.77;;
10465;SDS011;5280;42.600;23.556;2023-06-24T05:05:20;9.30;;;8.40;;
10465;SDS011;5280;42.600;23.556;2023-06-24T05:07:47;8.60;;;7.97;;
10465;SDS011;5280;42.600;23.556;2023-06-24T05:10:13;11.37;;;8.83;;
10465;SDS011;5280;42.600;23.556;2023-06-24T05:12:42;9.85;;;9.00;;
10465;SDS011;5280;42.600;23.556;2023-06-24T05:15:10;10.87;;;9.77;;
10465;SDS011;5280;42.600;23.556;2023-06-24T05:17:37;9.73;;;9.02;;
10465;SDS011;5280;42.600;23.556;2023-06-24T05:20:04;10.93;;;9.93;;
10465;SDS011;5280;42.600;23.556;2023-06-24T05:22:31;10.95;;;9.48;;
10465;SDS011;5280;42.600;23.556;2023-06-24T05:24:58;10.18;;;9.32;;
10465;SDS011;5280;42.600;23.556;2023-06-24T05:27:25;10.02;;;9.13;;
10465;SDS011;5280;42.600;23.556;2023-06-24T05:29:53;9.93;;;9.13;;
10465;SDS011;5280;42.600;23.556;2023-06-24T05:32:20;10.75;;;9.75;;
10465;SDS011;5280;42.600;23.556;2023-06-24T05:34:47;9.68;;;8.98;;
10465;SDS011;5280;42.600;23.556;2023-06-24T05:37:13;9.55;;;8.80;;
10465;SDS011;5280;42.600;23.556;2023-06-24T05:39:40;9.73;;;8.90;;
10465;SDS011;5280;42.600;23.556;2023-06-24T05:42:07;9.82;;;8.93;;
10465;SDS011;5280;42.600;23.556;2023-06-24T05:44:34;10.10;;;9.10;;
10465;SDS011;5280;42.600;23.556;2023-06-24T05:47:02;9.70;;;8.93;;
10465;SDS011;5280;42.600;23.556;2023-06-24T05:49:29;8.43;;;7.72;;
10465;SDS011;5280;42.600;23.556;2023-06-24T05:51:58;8.57;;;7.93;;
10465;SDS011;5280;42.600;23.556;2023-06-24T05:54:25;9.77;;;8.88;;
10465;SDS011;5280;42.600;23.556;2023-06-24T05:56:52;9.45;;;8.65;;
10465;SDS011;5280;42.600;23.556;2023-06-24T05:59:19;9.13;;;8.43;;
10465;SDS011;5280;42.600;23.556;2023-06-24T06:01:45;10.07;;;9.20;;
10465;SDS011;5280;42.600;23.556;2023-06-24T06:04:13;10.05;;;9.25;;
10465;SDS011;5280;42.600;23.556;2023-06-24T06:06:40;9.10;;;8.43;;
10465;SDS011;5280;42.600;23.556;2023-06-24T06:09:07;9.38;;;8.68;;
10465;SDS011;5280;42.600;23.556;2023-06-24T06:11:34;9.60;;;8.80;;
10465;SDS011;5280;42.600;23.556;2023-06-24T06:14:01;9.32;;;8.57;;
10465;SDS011;5280;42.600;23.556;2023-06-24T06:16:28;10.80;;;8.57;;
10465;SDS011;5280;42.600;23.556;2023-06-24T06:18:54;9.20;;;8.43;;
10465;SDS011;5280;42.600;23.556;2023-06-24T06:21:24;8.55;;;7.82;;
10465;SDS011;5280;42.600;23.556;2023-06-24T06:23:51;9.40;;;8.50;;
10465;SDS011;5280;42.600;23.556;2023-06-24T06:26:17;9.93;;;8.38;;
10465;SDS011;5280;42.600;23.556;2023-06-24T06:28:44;9.55;;;8.65;;
10465;SDS011;5280;42.600;23.556;2023-06-24T06:31:13;13.32;;;7.95;;
10465;SDS011;5280;42.600;23.556;2023-06-24T06:33:40;8.90;;;8.02;;
10465;SDS011;5280;42.600;23.556;2023-06-24T06:36:07;9.43;;;8.50;;
10465;SDS011;5280;42.600;23.556;2023-06-24T06:38:35;10.68;;;9.32;;
10465;SDS011;5280;42.600;23.556;2023-06-24T06:41:02;9.27;;;8.50;;
10465;SDS011;5280;42.600;23.556;2023-06-24T06:43:29;9.20;;;8.50;;
10465;SDS011;5280;42.600;23.556;2023-06-24T06:45:55;8.88;;;8.18;;
10465;SDS011;5280;42.600;23.556;2023-06-24T06:48:22;9.13;;;8.35;;
10465;SDS011;5280;42.600;23.556;2023-06-24T06:50:49;9.32;;;8.60;;
10465;SDS011;5280;42.600;23.556;2023-06-24T06:53:17;9.52;;;8.73;;
10465;SDS011;5280;42.600;23.556;2023-06-24T06:55:46;8.98;;;8.27;;
10465;SDS011;5280;42.600;23.556;2023-06-24T06:58:14;9.77;;;8.57;;
10465;SDS011;5280;42.600;23.556;2023-06-24T07:00:44;8.93;;;8.07;;
10465;SDS011;5280;42.600;23.556;2023-06-24T07:03:11;8.68;;;7.93;;
10465;SDS011;5280;42.600;23.556;2023-06-24T07:05:38;9.50;;;8.55;;
10465;SDS011;5280;42.600;23.556;2023-06-24T07:08:05;9.07;;;8.30;;
10465;SDS011;5280;42.600;23.556;2023-06-24T07:10:32;9.25;;;8.55;;
10465;SDS011;5280;42.600;23.556;2023-06-24T07:13:01;9.80;;;9.00;;
10465;SDS011;5280;42.600;23.556;2023-06-24T07:15:28;9.18;;;8.38;;
10465;SDS011;5280;42.600;23.556;2023-06-24T07:17:58;8.90;;;8.20;;
10465;SDS011;5280;42.600;23.556;2023-06-24T07:20:25;9.27;;;8.48;;
10465;SDS011;5280;42.600;23.556;2023-06-24T07:22:51;9.23;;;8.50;;
10465;SDS011;5280;42.600;23.556;2023-06-24T07:25:19;9.57;;;8.63;;
10465;SDS011;5280;42.600;23.556;2023-06-24T07:27:45;9.02;;;8.13;;
10465;SDS011;5280;42.600;23.556;2023-06-24T07:30:14;9.18;;;8.27;;
10465;SDS011;5280;42.600;23.556;2023-06-24T07:32:41;9.55;;;8.68;;
10465;SDS011;5280;42.600;23.556;2023-06-24T07:35:08;10.85;;;7.78;;
10465;SDS011;5280;42.600;23.556;2023-06-24T07:37:35;8.98;;;8.18;;
10465;SDS011;5280;42.600;23.556;2023-06-24T07:40:04;8.07;;;7.47;;
10465;SDS011;5280;42.600;23.556;2023-06-24T07:42:34;8.82;;;8.02;;
10465;SDS011;5280;42.600;23.556;2023-06-24T07:45:01;8.95;;;7.93;;
10465;SDS011;5280;42.600;23.556;2023-06-24T07:47:29;8.50;;;7.80;;
10465;SDS011;5280;42.600;23.556;2023-06-24T07:49:57;8.93;;;8.15;;
10465;SDS011;5280;42.600;23.556;2023-06-24T07:52:24;8.68;;;7.95;;
10465;SDS011;5280;42.600;23.556;2023-06-24T07:54:50;8.50;;;7.90;;
10465;SDS011;5280;42.600;23.556;2023-06-24T07:57:18;8.57;;;7.88;;
10465;SDS011;5280;42.600;23.556;2023-06-24T07:59:45;8.23;;;7.50;;
10465;SDS011;5280;42.600;23.556;2023-06-24T08:02:11;8.52;;;7.93;;
10465;SDS011;5280;42.600;23.556;2023-06-24T08:04:40;7.82;;;7.28;;
10465;SDS011;5280;42.600;23.556;2023-06-24T08:07:07;8.10;;;7.47;;
10465;SDS011;5280;42.600;23.556;2023-06-24T08:09:33;7.80;;;7.15;;
10465;SDS011;5280;42.600;23.556;2023-06-24T08:12:00;7.78;;;7.10;;
10465;SDS011;5280;42.600;23.556;2023-06-24T08:14:28;8.52;;;7.93;;
10465;SDS011;5280;42.600;23.556;2023-06-24T08:16:54;7.88;;;7.25;;
10465;SDS011;5280;42.600;23.556;2023-06-24T08:19:21;7.93;;;7.43;;
10465;SDS011;5280;42.600;23.556;2023-06-24T08:21:51;7.72;;;7.22;;
10465;SDS011;5280;42.600;23.556;2023-06-24T08:24:18;8.57;;;7.47;;
10465;SDS011;5280;42.600;23.556;2023-06-24T08:26:45;8.75;;;7.78;;
10465;SDS011;5280;42.600;23.556;2023-06-24T08:29:12;8.43;;;7.65;;
10465;SDS011;5280;42.600;23.556;2023-06-24T08:31:39;8.32;;;7.63;;
10465;SDS011;5280;42.600;23.556;2023-06-24T08:34:06;7.68;;;6.97;;
10465;SDS011;5280;42.600;23.556;2023-06-24T08:36:33;8.40;;;7.75;;
10465;SDS011;5280;42.600;23.556;2023-06-24T08:39:02;8.70;;;8.10;;
10465;SDS011;5280;42.600;23.556;2023-06-24T08:41:29;8.32;;;7.63;;
10465;SDS011;5280;42.600;23.556;2023-06-24T08:43:56;8.57;;;7.88;;
10465;SDS011;5280;42.600;23.556;2023-06-24T08:46:24;8.70;;;8.10;;
10465;SDS011;5280;42.600;23.556;2023-06-24T08:48:53;8.70;;;7.88;;
10465;SDS011;5280;42.600;23.556;2023-06-24T08:51:26;8.07;;;7.47;;
10465;SDS011;5280;42.600;23.556;2023-06-24T08:53:55;8.52;;;7.82;;
10465;SDS011;5280;42.600;23.556;2023-06-24T08:56:25;8.77;;;7.97;;
10465;SDS011;5280;42.600;23.556;2023-06-24T08:58:53;8.75;;;8.05;;
10465;SDS011;5280;42.600;23.556;2023-06-24T09:01:20;8.73;;;8.02;;
10465;SDS011;5280;42.600;23.556;2023-06-24T09:03:47;8.85;;;8.05;;
10465;SDS011;5280;42.600;23.556;2023-06-24T09:06:14;9.02;;;8.23;;
10465;SDS011;5280;42.600;23.556;2023-06-24T09:08:41;8.77;;;7.97;;
10465;SDS011;5280;42.600;23.556;2023-06-24T09:11:21;9.05;;;8.18;;
10465;SDS011;5280;42.600;23.556;2023-06-24T09:13:51;8.23;;;7.63;;
10465;SDS011;5280;42.600;23.556;2023-06-24T09:16:21;8.38;;;7.70;;
10465;SDS011;5280;42.600;23.556;2023-06-24T09:18:48;8.68;;;7.97;;
10465;SDS011;5280;42.600;23.556;2023-06-24T09:21:20;8.65;;;8.02;;
10465;SDS011;5280;42.600;23.556;2023-06-24T09:23:49;7.85;;;7.25;;
10465;SDS011;5280;42.600;23.556;2023-06-24T09:26:18;8.27;;;7.57;;
10465;SDS011;5280;42.600;23.556;2023-06-24T09:28:47;8.27;;;7.57;;
10465;SDS011;5280;42.600;23.556;2023-06-24T09:31:15;8.40;;;7.57;;
10465;SDS011;5280;42.600;23.556;2023-06-24T09:33:43;7.78;;;7.18;;
10465;SDS011;5280;42.600;23.556;2023-06-24T09:36:11;8.63;;;7.80;;
10465;SDS011;5280;42.600;23.556;2023-06-24T09:38:38;8.60;;;7.68;;
10465;SDS011;5280;42.600;23.556;2023-06-24T09:41:09;13.13;;;7.88;;
10465;SDS011;5280;42.600;23.556;2023-06-24T09:43:37;8.43;;;7.70;;
10465;SDS011;5280;42.600;23.556;2023-06-24T09:46:05;7.85;;;7.35;;
10465;SDS011;5280;42.600;23.556;2023-06-24T09:48:34;8.77;;;7.80;;
10465;SDS011;5280;42.600;23.556;2023-06-24T09:51:01;9.02;;;8.32;;
10465;SDS011;5280;42.600;23.556;2023-06-24T09:53:29;9.07;;;7.90;;
10465;SDS011;5280;42.600;23.556;2023-06-24T09:55:57;8.57;;;7.78;;
10465;SDS011;5280;42.600;23.556;2023-06-24T09:58:26;8.98;;;8.23;;
10465;SDS011;5280;42.600;23.556;2023-06-24T10:00:56;8.68;;;7.88;;
10465;SDS011;5280;42.600;23.556;2023-06-24T10:03:26;8.10;;;7.38;;
10465;SDS011;5280;42.600;23.556;2023-06-24T10:05:54;8.48;;;7.75;;
10465;SDS011;5280;42.600;23.556;2023-06-24T10:08:22;9.55;;;8.23;;
10465;SDS011;5280;42.600;23.556;2023-06-24T10:10:49;7.90;;;7.40;;
10465;SDS011;5280;42.600;23.556;2023-06-24T10:13:16;8.80;;;7.30;;
10465;SDS011;5280;42.600;23.556;2023-06-24T10:15:44;8.90;;;7.60;;
10465;SDS011;5280;42.600;23.556;2023-06-24T10:18:31;7.85;;;7.35;;
10465;SDS011;5280;42.600;23.556;2023-06-24T10:21:00;8.48;;;7.72;;
10465;SDS011;5280;42.600;23.556;2023-06-24T10:23:29;8.05;;;7.45;;
10465;SDS011;5280;42.600;23.556;2023-06-24T10:25:57;7.60;;;7.00;;
10465;SDS011;5280;42.600;23.556;2023-06-24T10:28:25;8.30;;;7.68;;
10465;SDS011;5280;42.600;23.556;2023-06-24T10:30:54;8.00;;;7.30;;
10465;SDS011;5280;42.600;23.556;2023-06-24T10:33:23;7.93;;;7.20;;
10465;SDS011;5280;42.600;23.556;2023-06-24T10:35:50;8.27;;;7.60;;
10465;SDS011;5280;42.600;23.556;2023-06-24T10:38:20;9.10;;;7.85;;
10465;SDS011;5280;42.600;23.556;2023-06-24T10:40:47;8.20;;;7.60;;
10465;SDS011;5280;42.600;23.556;2023-06-24T10:43:25;8.18;;;7.57;;
10465;SDS011;5280;42.600;23.556;2023-06-24T10:45:54;8.77;;;8.07;;
10465;SDS011;5280;42.600;23.556;2023-06-24T10:48:22;7.85;;;7.35;;
10465;SDS011;5280;42.600;23.556;2023-06-24T10:50:50;7.60;;;7.05;;
10465;SDS011;5280;42.600;23.556;2023-06-24T10:53:17;7.15;;;6.65;;
10465;SDS011;5280;42.600;23.556;2023-06-24T10:55:46;7.95;;;7.35;;
10465;SDS011;5280;42.600;23.556;2023-06-24T10:58:14;8.40;;;7.70;;
10465;SDS011;5280;42.600;23.556;2023-06-24T11:00:41;6.70;;;6.30;;
10465;SDS011;5280;42.600;23.556;2023-06-24T11:03:11;7.78;;;7.03;;
10465;SDS011;5280;42.600;23.556;2023-06-24T11:05:39;7.93;;;7.00;;
10465;SDS011;5280;42.600;23.556;2023-06-24T11:08:07;7.15;;;6.63;;
10465;SDS011;5280;42.600;23.556;2023-06-24T11:10:34;7.60;;;6.97;;
10465;SDS011;5280;42.600;23.556;2023-06-24T11:13:09;10.80;;;7.45;;
10465;SDS011;5280;42.600;23.556;2023-06-24T11:15:36;7.50;;;7.00;;
10465;SDS011;5280;42.600;23.556;2023-06-24T11:18:04;7.45;;;6.85;;
10465;SDS011;5280;42.600;23.556;2023-06-24T11:20:31;14.60;;;8.25;;
10465;SDS011;5280;42.600;23.556;2023-06-24T11:22:58;8.13;;;7.00;;
10465;SDS011;5280;42.600;23.556;2023-06-24T11:25:24;7.15;;;6.57;;
10465;SDS011;5280;42.600;23.556;2023-06-24T11:27:51;7.57;;;6.90;;
10465;SDS011;5280;42.600;23.556;2023-06-24T11:30:20;7.57;;;6.97;;
10465;SDS011;5280;42.600;23.556;2023-06-24T11:32:47;7.07;;;6.57;;
10465;SDS011;5280;42.600;23.556;2023-06-24T11:35:15;7.95;;;7.25;;
10465;SDS011;5280;42.600;23.556;2023-06-24T11:37:42;7.95;;;7.03;;
10465;SDS011;5280;42.600;23.556;2023-06-24T11:40:10;7.80;;;7.10;;
10465;SDS011;5280;42.600;23.556;2023-06-24T11:42:37;8.00;;;7.30;;
10465;SDS011;5280;42.600;23.556;2023-06-24T11:45:05;11.68;;;7.95;;
10465;SDS011;5280;42.600;23.556;2023-06-24T11:47:35;9.05;;;7.90;;
10465;SDS011;5280;42.600;23.556;2023-06-24T11:50:03;7.90;;;7.30;;
10465;SDS011;5280;42.600;23.556;2023-06-24T11:52:32;8.18;;;7.38;;
10465;SDS011;5280;42.600;23.556;2023-06-24T11:55:10;7.47;;;6.97;;
10465;SDS011;5280;42.600;23.556;2023-06-24T11:57:51;7.88;;;7.28;;
10465;SDS011;5280;42.600;23.556;2023-06-24T12:00:20;7.38;;;6.88;;
10465;SDS011;5280;42.600;23.556;2023-06-24T12:02:56;7.57;;;7.00;;
10465;SDS011;5280;42.600;23.556;2023-06-24T12:05:25;7.45;;;6.90;;
10465;SDS011;5280;42.600;23.556;2023-06-24T12:07:57;8.02;;;7.05;;
10465;SDS011;5280;42.600;23.556;2023-06-24T12:10:25;8.30;;;7.50;;
10465;SDS011;5280;42.600;23.556;2023-06-24T12:12:54;7.50;;;6.90;;
10465;SDS011;5280;42.600;23.556;2023-06-24T12:15:22;7.57;;;6.90;;
10465;SDS011;5280;42.600;23.556;2023-06-24T12:17:49;7.78;;;7.25;;
10465;SDS011;5280;42.600;23.556;2023-06-24T12:20:18;8.85;;;6.78;;
10465;SDS011;5280;42.600;23.556;2023-06-24T12:22:45;7.38;;;6.80;;
10465;SDS011;5280;42.600;23.556;2023-06-24T12:25:13;7.65;;;7.15;;
10465;SDS011;5280;42.600;23.556;2023-06-24T12:27:41;7.85;;;7.25;;
10465;SDS011;5280;42.600;23.556;2023-06-24T12:30:08;8.32;;;7.68;;
10465;SDS011;5280;42.600;23.556;2023-06-24T12:32:36;8.35;;;7.75;;
10465;SDS011;5280;42.600;23.556;2023-06-24T12:35:04;7.90;;;7.30;;
10465;SDS011;5280;42.600;23.556;2023-06-24T12:37:35;8.15;;;7.55;;
10465;SDS011;5280;42.600;23.556;2023-06-24T12:40:02;8.07;;;7.30;;
10465;SDS011;5280;42.600;23.556;2023-06-24T12:42:30;8.20;;;7.57;;
10465;SDS011;5280;42.600;23.556;2023-06-24T12:44:58;8.82;;;7.97;;
10465;SDS011;5280;42.600;23.556;2023-06-24T12:47:25;7.97;;;7.30;;
10465;SDS011;5280;42.600;23.556;2023-06-24T12:49:52;8.57;;;7.88;;
10465;SDS011;5280;42.600;23.556;2023-06-24T12:52:19;9.15;;;8.18;;
10465;SDS011;5280;42.600;23.556;2023-06-24T12:54:47;7.95;;;7.38;;
10465;SDS011;5280;42.600;23.556;2023-06-24T12:57:14;8.38;;;7.78;;
10465;SDS011;5280;42.600;23.556;2023-06-24T12:59:41;8.30;;;7.70;;
10465;SDS011;5280;42.600;23.556;2023-06-24T13:02:08;8.77;;;8.10;;
10465;SDS011;5280;42.600;23.556;2023-06-24T13:04:35;8.60;;;8.00;;
10465;SDS011;5280;42.600;23.556;2023-06-24T13:07:01;8.70;;;8.07;;
10465;SDS011;5280;42.600;23.556;2023-06-24T13:09:29;8.77;;;7.85;;
10465;SDS011;5280;42.600;23.556;2023-06-24T13:11:58;8.57;;;7.88;;
10465;SDS011;5280;42.600;23.556;2023-06-24T13:14:25;8.93;;;8.32;;
10465;SDS011;5280;42.600;23.556;2023-06-24T13:16:53;7.82;;;7.28;;
10465;SDS011;5280;42.600;23.556;2023-06-24T13:19:20;8.30;;;7.70;;
10465;SDS011;5280;42.600;23.556;2023-06-24T13:21:47;8.48;;;7.78;;
10465;SDS011;5280;42.600;23.556;2023-06-24T13:24:14;8.55;;;7.85;;
10465;SDS011;5280;42.600;23.556;2023-06-24T13:26:40;8.80;;;7.95;;
10465;SDS011;5280;42.600;23.556;2023-06-24T13:29:09;8.63;;;7.93;;
10465;SDS011;5280;42.600;23.556;2023-06-24T13:31:36;10.18;;;8.10;;
10465;SDS011;5280;42.600;23.556;2023-06-24T13:34:03;9.32;;;8.30;;
10465;SDS011;5280;42.600;23.556;2023-06-24T13:36:30;8.70;;;8.00;;
10465;SDS011;5280;42.600;23.556;2023-06-24T13:39:00;8.93;;;8.32;;
10465;SDS011;5280;42.600;23.556;2023-06-24T13:41:27;9.38;;;8.57;;
10465;SDS011;5280;42.600;23.556;2023-06-24T13:43:55;8.50;;;7.90;;
10465;SDS011;5280;42.600;23.556;2023-06-24T13:46:24;9.43;;;8.73;;
10465;SDS011;5280;42.600;23.556;2023-06-24T13:48:50;9.43;;;8.50;;
10465;SDS011;5280;42.600;23.556;2023-06-24T13:51:18;8.88;;;8.02;;
10465;SDS011;5280;42.600;23.556;2023-06-24T13:53:45;8.70;;;8.10;;
10465;SDS011;5280;42.600;23.556;2023-06-24T13:56:12;8.30;;;7.70;;
10465;SDS011;5280;42.600;23.556;2023-06-24T13:58:39;8.55;;;7.85;;
10465;SDS011;5280;42.600;23.556;2023-06-24T14:01:06;9.40;;;8.70;;
10465;SDS011;5280;42.600;23.556;2023-06-24T14:03:34;11.10;;;9.00;;
10465;SDS011;5280;42.600;23.556;2023-06-24T14:06:01;8.35;;;7.00;;
10465;SDS011;5280;42.600;23.556;2023-06-24T14:08:28;12.15;;;6.63;;
10465;SDS011;5280;42.600;23.556;2023-06-24T14:10:56;16.23;;;6.07;;
10465;SDS011;5280;42.600;23.556;2023-06-24T14:13:23;28.02;;;6.38;;
10465;SDS011;5280;42.600;23.556;2023-06-24T14:15:51;17.17;;;5.97;;
10465;SDS011;5280;42.600;23.556;2023-06-24T14:18:18;17.67;;;6.10;;
10465;SDS011;5280;42.600;23.556;2023-06-24T14:20:47;11.82;;;6.15;;
10465;SDS011;5280;42.600;23.556;2023-06-24T14:23:14;14.43;;;6.47;;
10465;SDS011;5280;42.600;23.556;2023-06-24T14:25:41;13.52;;;6.57;;
10465;SDS011;5280;42.600;23.556;2023-06-24T14:28:08;13.73;;;6.35;;
10465;SDS011;5280;42.600;23.556;2023-06-24T14:30:35;20.92;;;6.43;;
10465;SDS011;5280;42.600;23.556;2023-06-24T14:33:02;14.05;;;7.18;;
10465;SDS011;5280;42.600;23.556;2023-06-24T14:35:28;11.23;;;6.47;;
10465;SDS011;5280;42.600;23.556;2023-06-24T14:37:56;12.73;;;6.60;;
10465;SDS011;5280;42.600;23.556;2023-06-24T14:40:23;12.82;;;7.00;;
10465;SDS011;5280;42.600;23.556;2023-06-24T14:42:50;14.85;;;7.70;;
10465;SDS011;5280;42.600;23.556;2023-06-24T14:45:17;12.20;;;6.72;;
10465;SDS011;5280;42.600;23.556;2023-06-24T14:47:43;15.40;;;7.00;;
10465;SDS011;5280;42.600;23.556;2023-06-24T14:50:10;10.48;;;7.68;;
10465;SDS011;5280;42.600;23.556;2023-06-24T14:52:37;7.85;;;7.03;;
10465;SDS011;5280;42.600;23.556;2023-06-24T14:55:06;12.40;;;7.97;;